PWSweather.com
Personal Weather Stations
Station Observations
BERGSLAGEN
Bergslagen, NoraSE

BergslagenNoraSE

Lat: 59.532278, Lon: 15.016132

Elevation: 492

Station Type: Davis Vantage Pro2 Plus Wireless

http://www.weather.tallasen.se

High Low Average
Temperature 46.2°F7.9°F 35.8°F2.1°F 41.0°F5.0°F
Dew Point 43.0°F6.1°F 34.8°F1.6°F 39.0°F3.9°F
Winds 3.0 mph -4.8 mph - Calm Calm 1.0 mph 1.6 mph
Wind Gusts 10.0 mph16.1 mph -- 3.7 mph6.0 mph
Humidity 97% 80% 93%
Pressure 30.19 in1022.40 in 30.06 in1017.90 in -
Precipitation 0.00 in0.00 in - -
Hour Temp Dew Point Humidity Winds Wind Gusts Pressure Precip Precip Rate Daily Precip Total
12:00 AM 39.0°F3.9°C 36.6°F2.6°C 91% Calm Calm -- 30.10 in1019.3 mb 0.00 in0.0 mm 0.00 in0.0 mm 0.00 in0.0 mm
12:15 AM 38.8°F3.8°C 36.7°F2.6°C 92% Calm Calm -- 30.10 in1019.3 mb 0.00 in0.0 mm 0.00 in0.0 mm 0.00 in0.0 mm
12:30 AM 38.8°F3.8°C 36.7°F2.6°C 92% Calm Calm -- 30.10 in1019.3 mb 0.00 in0.0 mm 0.00 in0.0 mm 0.00 in0.0 mm
12:45 AM 39.2°F4.0°C 37.1°F2.8°C 92% Calm Calm -- 30.09 in1019.0 mb 0.00 in0.0 mm 0.00 in0.0 mm 0.00 in0.0 mm
01:00 AM 39.2°F4.0°C 37.1°F2.8°C 92% Calm Calm -- 30.09 in1019.0 mb 0.00 in0.0 mm 0.00 in0.0 mm 0.00 in0.0 mm
01:15 AM 39.0°F3.9°C 36.9°F2.7°C 92% Calm Calm -- 30.09 in1019.0 mb 0.00 in0.0 mm 0.00 in0.0 mm 0.00 in0.0 mm
01:30 AM 39.0°F3.9°C 36.9°F2.7°C 92% Calm Calm -- 30.09 in1019.0 mb 0.00 in0.0 mm 0.00 in0.0 mm 0.00 in0.0 mm
01:45 AM 39.0°F3.9°C 36.9°F2.7°C 92% Calm Calm -- 30.08 in1018.6 mb 0.00 in0.0 mm 0.00 in0.0 mm 0.00 in0.0 mm
02:00 AM 39.0°F3.9°C 37.2°F2.9°C 93% Calm Calm -- 30.08 in1018.6 mb 0.00 in0.0 mm 0.00 in0.0 mm 0.00 in0.0 mm
02:15 AM 39.0°F3.9°C 37.2°F2.9°C 93% Calm Calm -- 30.08 in1018.6 mb 0.00 in0.0 mm 0.00 in0.0 mm 0.00 in0.0 mm
02:30 AM 39.0°F3.9°C 37.2°F2.9°C 93% Calm Calm 1.0 mph1.6 kmh 30.08 in1018.6 mb 0.00 in0.0 mm 0.00 in0.0 mm 0.00 in0.0 mm
02:45 AM 39.2°F4.0°C 37.3°F2.9°C 93% Calm Calm -- 30.07 in1018.3 mb 0.00 in0.0 mm 0.00 in0.0 mm 0.00 in0.0 mm
03:00 AM 39.4°F4.1°C 37.8°F3.2°C 94% Calm Calm -- 30.07 in1018.3 mb 0.00 in0.0 mm 0.00 in0.0 mm 0.00 in0.0 mm
03:15 AM 39.7°F4.3°C 38.2°F3.4°C 94% Calm Calm 1.0 mph1.6 kmh 30.07 in1018.3 mb 0.00 in0.0 mm 0.00 in0.0 mm 0.00 in0.0 mm
03:30 AM 40.1°F4.5°C 38.5°F3.6°C 94% Calm Calm 2.0 mph3.2 kmh 30.07 in1018.3 mb 0.00 in0.0 mm 0.00 in0.0 mm 0.00 in0.0 mm
03:45 AM 40.6°F4.8°C 39.3°F4.1°C 95% Calm Calm 4.0 mph6.4 kmh 30.07 in1018.3 mb 0.00 in0.0 mm 0.00 in0.0 mm 0.00 in0.0 mm
04:00 AM 41.0°F5.0°C 39.7°F4.3°C 95% Calm Calm 2.0 mph3.2 kmh 30.06 in1017.9 mb 0.00 in0.0 mm 0.00 in0.0 mm 0.00 in0.0 mm
04:15 AM 41.2°F5.1°C 39.9°F4.4°C 95% Calm Calm 1.0 mph1.6 kmh 30.06 in1017.9 mb 0.00 in0.0 mm 0.00 in0.0 mm 0.00 in0.0 mm
04:30 AM 41.4°F5.2°C 40.0°F4.4°C 95% Calm Calm 2.0 mph3.2 kmh 30.06 in1017.9 mb 0.00 in0.0 mm 0.00 in0.0 mm 0.00 in0.0 mm
04:45 AM 42.1°F5.6°C 40.8°F4.9°C 95% 2.0 mph W3.2 kmh W 5.0 mph8.0 kmh 30.06 in1017.9 mb 0.00 in0.0 mm 0.00 in0.0 mm 0.00 in0.0 mm
05:00 AM 42.1°F5.6°C 41.0°F5.0°C 96% 1.0 mph W1.6 kmh W 4.0 mph6.4 kmh 30.06 in1017.9 mb 0.00 in0.0 mm 0.00 in0.0 mm 0.00 in0.0 mm
05:15 AM 42.1°F5.6°C 41.0°F5.0°C 96% Calm Calm 4.0 mph6.4 kmh 30.07 in1018.3 mb 0.00 in0.0 mm 0.00 in0.0 mm 0.00 in0.0 mm
05:30 AM 42.1°F5.6°C 41.0°F5.0°C 96% Calm Calm 2.0 mph3.2 kmh 30.07 in1018.3 mb 0.00 in0.0 mm 0.00 in0.0 mm 0.00 in0.0 mm
05:45 AM 42.1°F5.6°C 41.0°F5.0°C 96% Calm Calm 2.0 mph3.2 kmh 30.08 in1018.6 mb 0.00 in0.0 mm 0.00 in0.0 mm 0.00 in0.0 mm
06:00 AM 42.3°F5.7°C 41.2°F5.1°C 96% 1.0 mph WNW1.6 kmh WNW 2.0 mph3.2 kmh 30.08 in1018.6 mb 0.00 in0.0 mm 0.00 in0.0 mm 0.00 in0.0 mm
06:15 AM 42.3°F5.7°C 41.2°F5.1°C 96% Calm Calm 1.0 mph1.6 kmh 30.08 in1018.6 mb 0.00 in0.0 mm 0.00 in0.0 mm 0.00 in0.0 mm
06:30 AM 42.3°F5.7°C 41.2°F5.1°C 96% 1.0 mph W1.6 kmh W 5.0 mph8.0 kmh 30.08 in1018.6 mb 0.00 in0.0 mm 0.00 in0.0 mm 0.00 in0.0 mm
06:45 AM 42.4°F5.8°C 41.4°F5.2°C 96% Calm Calm 2.0 mph3.2 kmh 30.09 in1019.0 mb 0.00 in0.0 mm 0.00 in0.0 mm 0.00 in0.0 mm
07:00 AM 42.4°F5.8°C 41.4°F5.2°C 96% Calm Calm 4.0 mph6.4 kmh 30.09 in1019.0 mb 0.00 in0.0 mm 0.00 in0.0 mm 0.00 in0.0 mm
07:15 AM 42.4°F5.8°C 41.4°F5.2°C 96% 1.0 mph WSW1.6 kmh WSW 4.0 mph6.4 kmh 30.09 in1019.0 mb 0.00 in0.0 mm 0.00 in0.0 mm 0.00 in0.0 mm
07:30 AM 42.3°F5.7°C 41.2°F5.1°C 96% Calm Calm 2.0 mph3.2 kmh 30.09 in1019.0 mb 0.00 in0.0 mm 0.00 in0.0 mm 0.00 in0.0 mm
07:45 AM 42.3°F5.7°C 41.2°F5.1°C 96% Calm Calm 4.0 mph6.4 kmh 30.09 in1019.0 mb 0.00 in0.0 mm 0.00 in0.0 mm 0.00 in0.0 mm
08:00 AM 42.1°F5.6°C 41.0°F5.0°C 96% Calm Calm 2.0 mph3.2 kmh 30.09 in1019.0 mb 0.00 in0.0 mm 0.00 in0.0 mm 0.00 in0.0 mm
08:15 AM 42.1°F5.6°C 41.0°F5.0°C 96% Calm Calm 1.0 mph1.6 kmh 30.10 in1019.3 mb 0.00 in0.0 mm 0.00 in0.0 mm 0.00 in0.0 mm
08:30 AM 41.7°F5.4°C 40.7°F4.8°C 96% Calm Calm 3.0 mph4.8 kmh 30.10 in1019.3 mb 0.00 in0.0 mm 0.00 in0.0 mm 0.00 in0.0 mm
08:45 AM 42.1°F5.6°C 41.0°F5.0°C 96% 2.0 mph W3.2 kmh W 5.0 mph8.0 kmh 30.11 in1019.6 mb 0.00 in0.0 mm 0.00 in0.0 mm 0.00 in0.0 mm
09:00 AM 42.1°F5.6°C 41.3°F5.2°C 97% 2.0 mph W3.2 kmh W 6.0 mph9.7 kmh 30.11 in1019.6 mb 0.00 in0.0 mm 0.00 in0.0 mm 0.00 in0.0 mm
09:15 AM 42.1°F5.6°C 41.3°F5.2°C 97% Calm Calm 3.0 mph4.8 kmh 30.11 in1019.6 mb 0.00 in0.0 mm 0.00 in0.0 mm 0.00 in0.0 mm
09:30 AM 42.1°F5.6°C 41.3°F5.2°C 97% Calm Calm 4.0 mph6.4 kmh 30.11 in1019.6 mb 0.00 in0.0 mm 0.00 in0.0 mm 0.00 in0.0 mm
09:45 AM 42.4°F5.8°C 41.6°F5.3°C 97% 1.0 mph WSW1.6 kmh WSW 3.0 mph4.8 kmh 30.12 in1020.0 mb 0.00 in0.0 mm 0.00 in0.0 mm 0.00 in0.0 mm
10:00 AM 42.3°F5.7°C 41.5°F5.3°C 97% 1.0 mph WSW1.6 kmh WSW 4.0 mph6.4 kmh 30.13 in1020.3 mb 0.00 in0.0 mm 0.00 in0.0 mm 0.00 in0.0 mm
10:15 AM 42.6°F5.9°C 41.8°F5.4°C 97% 1.0 mph WSW1.6 kmh WSW 4.0 mph6.4 kmh 30.13 in1020.3 mb 0.00 in0.0 mm 0.00 in0.0 mm 0.00 in0.0 mm
10:30 AM 42.8°F6.0°C 42.0°F5.6°C 97% 1.0 mph WSW1.6 kmh WSW 5.0 mph8.0 kmh 30.13 in1020.3 mb 0.00 in0.0 mm 0.00 in0.0 mm 0.00 in0.0 mm
10:45 AM 42.8°F6.0°C 42.0°F5.6°C 97% Calm Calm 3.0 mph4.8 kmh 30.13 in1020.3 mb 0.00 in0.0 mm 0.00 in0.0 mm 0.00 in0.0 mm
11:00 AM 43.0°F6.1°C 42.2°F5.7°C 97% Calm Calm 3.0 mph4.8 kmh 30.13 in1020.3 mb 0.00 in0.0 mm 0.00 in0.0 mm 0.00 in0.0 mm
11:15 AM 42.6°F5.9°C 41.8°F5.4°C 97% 2.0 mph WSW3.2 kmh WSW 6.0 mph9.7 kmh 30.13 in1020.3 mb 0.00 in0.0 mm 0.00 in0.0 mm 0.00 in0.0 mm
11:30 AM 43.2°F6.2°C 42.4°F5.8°C 97% Calm Calm 4.0 mph6.4 kmh 30.14 in1020.7 mb 0.00 in0.0 mm 0.00 in0.0 mm 0.00 in0.0 mm
11:45 AM 43.0°F6.1°C 42.2°F5.7°C 97% 3.0 mph W4.8 kmh W 9.0 mph14.5 kmh 30.15 in1021.0 mb 0.00 in0.0 mm 0.00 in0.0 mm 0.00 in0.0 mm
12:00 PM 43.2°F6.2°C 42.4°F5.8°C 97% 1.0 mph WNW1.6 kmh WNW 5.0 mph8.0 kmh 30.15 in1021.0 mb 0.00 in0.0 mm 0.00 in0.0 mm 0.00 in0.0 mm
12:15 PM 43.3°F6.3°C 42.5°F5.8°C 97% Calm Calm 1.0 mph1.6 kmh 30.15 in1021.0 mb 0.00 in0.0 mm 0.00 in0.0 mm 0.00 in0.0 mm
12:30 PM 44.1°F6.7°C 43.0°F6.1°C 96% Calm Calm 5.0 mph8.0 kmh 30.15 in1021.0 mb 0.00 in0.0 mm 0.00 in0.0 mm 0.00 in0.0 mm
12:45 PM 44.1°F6.7°C 43.0°F6.1°C 96% Calm Calm 2.0 mph3.2 kmh 30.15 in1021.0 mb 0.00 in0.0 mm 0.00 in0.0 mm 0.00 in0.0 mm
01:00 PM 44.4°F6.9°C 42.8°F6.0°C 94% Calm Calm 3.0 mph4.8 kmh 30.15 in1021.0 mb 0.00 in0.0 mm 0.00 in0.0 mm 0.00 in0.0 mm
01:15 PM 44.8°F7.1°C 42.3°F5.7°C 91% 3.0 mph WSW4.8 kmh WSW 7.0 mph11.3 kmh 30.15 in1021.0 mb 0.00 in0.0 mm 0.00 in0.0 mm 0.00 in0.0 mm
01:30 PM 45.1°F7.3°C 41.8°F5.4°C 88% 2.0 mph W3.2 kmh W 6.0 mph9.7 kmh 30.16 in1021.3 mb 0.00 in0.0 mm 0.00 in0.0 mm 0.00 in0.0 mm
01:45 PM 45.7°F7.6°C 41.4°F5.2°C 85% 1.0 mph WSW1.6 kmh WSW 3.0 mph4.8 kmh 30.15 in1021.0 mb 0.00 in0.0 mm 0.00 in0.0 mm 0.00 in0.0 mm
02:00 PM 46.0°F7.8°C 41.2°F5.1°C 83% 2.0 mph WNW3.2 kmh WNW 5.0 mph8.0 kmh 30.14 in1020.7 mb 0.00 in0.0 mm 0.00 in0.0 mm 0.00 in0.0 mm
02:15 PM 45.9°F7.7°C 40.4°F4.7°C 81% 2.0 mph WSW3.2 kmh WSW 6.0 mph9.7 kmh 30.14 in1020.7 mb 0.00 in0.0 mm 0.00 in0.0 mm 0.00 in0.0 mm
02:30 PM 46.0°F7.8°C 40.5°F4.7°C 81% 2.0 mph WSW3.2 kmh WSW 7.0 mph11.3 kmh 30.14 in1020.7 mb 0.00 in0.0 mm 0.00 in0.0 mm 0.00 in0.0 mm
02:45 PM 46.2°F7.9°C 40.7°F4.8°C 81% 1.0 mph W1.6 kmh W 5.0 mph8.0 kmh 30.14 in1020.7 mb 0.00 in0.0 mm 0.00 in0.0 mm 0.00 in0.0 mm
03:00 PM 46.0°F7.8°C 40.2°F4.6°C 80% 3.0 mph WNW4.8 kmh WNW 7.0 mph11.3 kmh 30.15 in1021.0 mb 0.00 in0.0 mm 0.00 in0.0 mm 0.00 in0.0 mm
03:15 PM 45.7°F7.6°C 40.2°F4.6°C 81% 3.0 mph WNW4.8 kmh WNW 10.0 mph16.1 kmh 30.16 in1021.3 mb 0.00 in0.0 mm 0.00 in0.0 mm 0.00 in0.0 mm
03:30 PM 45.3°F7.4°C 39.8°F4.3°C 81% 2.0 mph WNW3.2 kmh WNW 7.0 mph11.3 kmh 30.16 in1021.3 mb 0.00 in0.0 mm 0.00 in0.0 mm 0.00 in0.0 mm
03:45 PM 44.8°F7.1°C 39.3°F4.1°C 81% 2.0 mph NW3.2 kmh NW 4.0 mph6.4 kmh 30.16 in1021.3 mb 0.00 in0.0 mm 0.00 in0.0 mm 0.00 in0.0 mm
04:00 PM 44.1°F6.7°C 38.6°F3.7°C 81% 1.0 mph WNW1.6 kmh WNW 4.0 mph6.4 kmh 30.16 in1021.3 mb 0.00 in0.0 mm 0.00 in0.0 mm 0.00 in0.0 mm
04:15 PM 43.5°F6.4°C 38.7°F3.7°C 83% Calm Calm 4.0 mph6.4 kmh 30.17 in1021.7 mb 0.00 in0.0 mm 0.00 in0.0 mm 0.00 in0.0 mm
04:30 PM 43.2°F6.2°C 38.7°F3.7°C 84% Calm Calm 3.0 mph4.8 kmh 30.16 in1021.3 mb 0.00 in0.0 mm 0.00 in0.0 mm 0.00 in0.0 mm
04:45 PM 42.6°F5.9°C 38.4°F3.6°C 85% 1.0 mph WNW1.6 kmh WNW 3.0 mph4.8 kmh 30.17 in1021.7 mb 0.00 in0.0 mm 0.00 in0.0 mm 0.00 in0.0 mm
05:00 PM 42.3°F5.7°C 38.4°F3.6°C 86% 1.0 mph W1.6 kmh W 3.0 mph4.8 kmh 30.16 in1021.3 mb 0.00 in0.0 mm 0.00 in0.0 mm 0.00 in0.0 mm
05:15 PM 41.4°F5.2°C 38.1°F3.4°C 88% 1.0 mph W1.6 kmh W 3.0 mph4.8 kmh 30.16 in1021.3 mb 0.00 in0.0 mm 0.00 in0.0 mm 0.00 in0.0 mm
05:30 PM 40.6°F4.8°C 37.7°F3.2°C 89% 1.0 mph W1.6 kmh W 5.0 mph8.0 kmh 30.17 in1021.7 mb 0.00 in0.0 mm 0.00 in0.0 mm 0.00 in0.0 mm
05:45 PM 39.9°F4.4°C 36.9°F2.7°C 89% 2.0 mph WNW3.2 kmh WNW 6.0 mph9.7 kmh 30.17 in1021.7 mb 0.00 in0.0 mm 0.00 in0.0 mm 0.00 in0.0 mm
06:00 PM 39.7°F4.3°C 37.3°F2.9°C 91% 2.0 mph WNW3.2 kmh WNW 5.0 mph8.0 kmh 30.17 in1021.7 mb 0.00 in0.0 mm 0.00 in0.0 mm 0.00 in0.0 mm
06:15 PM 39.4°F4.1°C 37.0°F2.8°C 91% 2.0 mph WNW3.2 kmh WNW 4.0 mph6.4 kmh 30.18 in1022.0 mb 0.00 in0.0 mm 0.00 in0.0 mm 0.00 in0.0 mm
06:30 PM 39.0°F3.9°C 36.9°F2.7°C 92% 1.0 mph W1.6 kmh W 4.0 mph6.4 kmh 30.18 in1022.0 mb 0.00 in0.0 mm 0.00 in0.0 mm 0.00 in0.0 mm
06:45 PM 38.7°F3.7°C 36.5°F2.5°C 92% 2.0 mph WNW3.2 kmh WNW 5.0 mph8.0 kmh 30.18 in1022.0 mb 0.00 in0.0 mm 0.00 in0.0 mm 0.00 in0.0 mm
07:00 PM 38.5°F3.6°C 36.4°F2.4°C 92% 2.0 mph WNW3.2 kmh WNW 5.0 mph8.0 kmh 30.19 in1022.4 mb 0.00 in0.0 mm 0.00 in0.0 mm 0.00 in0.0 mm
07:15 PM 38.1°F3.4°C 36.3°F2.4°C 93% 1.0 mph WNW1.6 kmh WNW 4.0 mph6.4 kmh 30.19 in1022.4 mb 0.00 in0.0 mm 0.00 in0.0 mm 0.00 in0.0 mm
07:30 PM 37.9°F3.3°C 36.1°F2.3°C 93% 1.0 mph WNW1.6 kmh WNW 3.0 mph4.8 kmh 30.19 in1022.4 mb 0.00 in0.0 mm 0.00 in0.0 mm 0.00 in0.0 mm
07:45 PM 37.8°F3.2°C 35.9°F2.2°C 93% 1.0 mph WNW1.6 kmh WNW 4.0 mph6.4 kmh 30.19 in1022.4 mb 0.00 in0.0 mm 0.00 in0.0 mm 0.00 in0.0 mm
08:00 PM 37.8°F3.2°C 36.2°F2.3°C 94% 1.0 mph WNW1.6 kmh WNW 5.0 mph8.0 kmh 30.18 in1022.0 mb 0.00 in0.0 mm 0.00 in0.0 mm 0.00 in0.0 mm
08:15 PM 37.2°F2.9°C 35.7°F2.1°C 94% 1.0 mph WNW1.6 kmh WNW 3.0 mph4.8 kmh 30.18 in1022.0 mb 0.00 in0.0 mm 0.00 in0.0 mm 0.00 in0.0 mm
08:30 PM 37.2°F2.9°C 35.7°F2.1°C 94% 3.0 mph WNW4.8 kmh WNW 6.0 mph9.7 kmh 30.18 in1022.0 mb 0.00 in0.0 mm 0.00 in0.0 mm 0.00 in0.0 mm
08:45 PM 37.8°F3.2°C 36.5°F2.5°C 95% 3.0 mph WNW4.8 kmh WNW 6.0 mph9.7 kmh 30.18 in1022.0 mb 0.00 in0.0 mm 0.00 in0.0 mm 0.00 in0.0 mm
09:00 PM 37.8°F3.2°C 36.5°F2.5°C 95% 3.0 mph WNW4.8 kmh WNW 7.0 mph11.3 kmh 30.18 in1022.0 mb 0.00 in0.0 mm 0.00 in0.0 mm 0.00 in0.0 mm
09:15 PM 37.8°F3.2°C 36.5°F2.5°C 95% 3.0 mph W4.8 kmh W 7.0 mph11.3 kmh 30.18 in1022.0 mb 0.00 in0.0 mm 0.00 in0.0 mm 0.00 in0.0 mm
09:30 PM 37.4°F3.0°C 36.1°F2.3°C 95% 3.0 mph W4.8 kmh W 7.0 mph11.3 kmh 30.18 in1022.0 mb 0.00 in0.0 mm 0.00 in0.0 mm 0.00 in0.0 mm
09:45 PM 36.9°F2.7°C 35.6°F2.0°C 95% 3.0 mph W4.8 kmh W 6.0 mph9.7 kmh 30.17 in1021.7 mb 0.00 in0.0 mm 0.00 in0.0 mm 0.00 in0.0 mm
10:00 PM 36.5°F2.5°C 35.2°F1.8°C 95% 3.0 mph W4.8 kmh W 6.0 mph9.7 kmh 30.17 in1021.7 mb 0.00 in0.0 mm 0.00 in0.0 mm 0.00 in0.0 mm
10:15 PM 36.5°F2.5°C 35.5°F1.9°C 96% 3.0 mph WNW4.8 kmh WNW 6.0 mph9.7 kmh 30.18 in1022.0 mb 0.00 in0.0 mm 0.00 in0.0 mm 0.00 in0.0 mm
10:30 PM 36.1°F2.3°C 35.1°F1.7°C 96% 2.0 mph W3.2 kmh W 6.0 mph9.7 kmh 30.17 in1021.7 mb 0.00 in0.0 mm 0.00 in0.0 mm 0.00 in0.0 mm
10:45 PM 35.8°F2.1°C 34.8°F1.6°C 96% 3.0 mph WNW4.8 kmh WNW 6.0 mph9.7 kmh 30.17 in1021.7 mb 0.00 in0.0 mm 0.00 in0.0 mm 0.00 in0.0 mm
11:00 PM 35.8°F2.1°C 34.8°F1.6°C 96% 1.0 mph WNW1.6 kmh WNW 4.0 mph6.4 kmh 30.16 in1021.3 mb 0.00 in0.0 mm 0.00 in0.0 mm 0.00 in0.0 mm
11:15 PM 36.1°F2.3°C 35.1°F1.7°C 96% Calm Calm 3.0 mph4.8 kmh 30.16 in1021.3 mb 0.00 in0.0 mm 0.00 in0.0 mm 0.00 in0.0 mm
11:30 PM 36.7°F2.6°C 35.6°F2.0°C 96% 2.0 mph WNW3.2 kmh WNW 5.0 mph8.0 kmh 30.16 in1021.3 mb 0.00 in0.0 mm 0.00 in0.0 mm 0.00 in0.0 mm
11:45 PM 36.9°F2.7°C 35.8°F2.1°C 96% 2.0 mph NW3.2 kmh NW 5.0 mph8.0 kmh 30.16 in1021.3 mb 0.00 in0.0 mm 0.00 in0.0 mm 0.00 in0.0 mm